sensor_id;sensor_type;location;lat;lon;timestamp;P1;durP1;ratioP1;P2;durP2;ratioP2
66727;SDS011;53641;44.274;19.890;2024-01-15T00:02:04;60.95;;;24.77;;
66727;SDS011;53641;44.274;19.890;2024-01-15T00:04:31;56.95;;;24.00;;
66727;SDS011;53641;44.274;19.890;2024-01-15T00:07:00;66.60;;;27.08;;
66727;SDS011;53641;44.274;19.890;2024-01-15T00:09:26;50.00;;;19.50;;
66727;SDS011;53641;44.274;19.890;2024-01-15T00:12:15;61.40;;;20.50;;
66727;SDS011;53641;44.274;19.890;2024-01-15T00:14:41;48.75;;;18.95;;
66727;SDS011;53641;44.274;19.890;2024-01-15T00:17:07;39.08;;;17.45;;
66727;SDS011;53641;44.274;19.890;2024-01-15T00:19:33;47.38;;;18.35;;
66727;SDS011;53641;44.274;19.890;2024-01-15T00:22:17;55.65;;;20.15;;
66727;SDS011;53641;44.274;19.890;2024-01-15T00:24:43;50.72;;;22.75;;
66727;SDS011;53641;44.274;19.890;2024-01-15T00:27:20;65.13;;;22.52;;
66727;SDS011;53641;44.274;19.890;2024-01-15T00:29:46;71.65;;;25.48;;
66727;SDS011;53641;44.274;19.890;2024-01-15T00:32:12;68.65;;;27.30;;
66727;SDS011;53641;44.274;19.890;2024-01-15T00:34:38;92.93;;;33.38;;
66727;SDS011;53641;44.274;19.890;2024-01-15T00:37:03;73.07;;;30.20;;
66727;SDS011;53641;44.274;19.890;2024-01-15T00:39:32;55.67;;;24.05;;
66727;SDS011;53641;44.274;19.890;2024-01-15T00:41:57;49.20;;;20.05;;
66727;SDS011;53641;44.274;19.890;2024-01-15T00:47:30;51.05;;;21.48;;
66727;SDS011;53641;44.274;19.890;2024-01-15T00:50:13;60.80;;;22.73;;
66727;SDS011;53641;44.274;19.890;2024-01-15T00:52:39;63.00;;;26.00;;
66727;SDS011;53641;44.274;19.890;2024-01-15T00:55:05;62.88;;;23.85;;
66727;SDS011;53641;44.274;19.890;2024-01-15T00:57:32;52.92;;;24.05;;
66727;SDS011;53641;44.274;19.890;2024-01-15T00:59:58;61.00;;;24.83;;
66727;SDS011;53641;44.274;19.890;2024-01-15T01:02:24;54.88;;;20.75;;
66727;SDS011;53641;44.274;19.890;2024-01-15T01:04:51;68.75;;;23.40;;
66727;SDS011;53641;44.274;19.890;2024-01-15T01:07:17;50.72;;;22.75;;
66727;SDS011;53641;44.274;19.890;2024-01-15T01:09:43;53.65;;;23.23;;
66727;SDS011;53641;44.274;19.890;2024-01-15T01:12:09;59.35;;;23.75;;
66727;SDS011;53641;44.274;19.890;2024-01-15T01:14:34;60.63;;;23.95;;
66727;SDS011;53641;44.274;19.890;2024-01-15T01:17:01;61.90;;;24.17;;
66727;SDS011;53641;44.274;19.890;2024-01-15T01:19:26;62.03;;;24.17;;
66727;SDS011;53641;44.274;19.890;2024-01-15T01:22:04;63.65;;;22.77;;
66727;SDS011;53641;44.274;19.890;2024-01-15T01:24:30;56.85;;;21.45;;
66727;SDS011;53641;44.274;19.890;2024-01-15T01:26:56;58.25;;;24.08;;
66727;SDS011;53641;44.274;19.890;2024-01-15T01:29:21;66.85;;;26.33;;
66727;SDS011;53641;44.274;19.890;2024-01-15T01:31:48;65.05;;;26.10;;
66727;SDS011;53641;44.274;19.890;2024-01-15T01:34:15;71.20;;;26.27;;
66727;SDS011;53641;44.274;19.890;2024-01-15T01:36:51;53.50;;;21.13;;
66727;SDS011;53641;44.274;19.890;2024-01-15T01:39:28;55.60;;;20.98;;
66727;SDS011;53641;44.274;19.890;2024-01-15T01:41:53;49.78;;;21.35;;
66727;SDS011;53641;44.274;19.890;2024-01-15T01:44:19;44.75;;;19.90;;
66727;SDS011;53641;44.274;19.890;2024-01-15T01:46:47;52.85;;;21.58;;
66727;SDS011;53641;44.274;19.890;2024-01-15T01:49:13;49.40;;;22.60;;
66727;SDS011;53641;44.274;19.890;2024-01-15T01:51:39;54.58;;;22.23;;
66727;SDS011;53641;44.274;19.890;2024-01-15T01:54:05;54.17;;;21.33;;
66727;SDS011;53641;44.274;19.890;2024-01-15T01:56:33;47.95;;;21.13;;
66727;SDS011;53641;44.274;19.890;2024-01-15T01:58:59;42.15;;;18.48;;
66727;SDS011;53641;44.274;19.890;2024-01-15T02:01:26;49.38;;;20.58;;
66727;SDS011;53641;44.274;19.890;2024-01-15T02:03:52;47.78;;;20.83;;
66727;SDS011;53641;44.274;19.890;2024-01-15T02:06:18;53.83;;;20.20;;
66727;SDS011;53641;44.274;19.890;2024-01-15T02:08:44;41.05;;;18.88;;
66727;SDS011;53641;44.274;19.890;2024-01-15T02:11:10;52.53;;;21.23;;
66727;SDS011;53641;44.274;19.890;2024-01-15T02:13:36;53.83;;;23.17;;
66727;SDS011;53641;44.274;19.890;2024-01-15T02:16:03;55.35;;;24.63;;
66727;SDS011;53641;44.274;19.890;2024-01-15T02:21:35;77.50;;;32.22;;
66727;SDS011;53641;44.274;19.890;2024-01-15T02:24:00;82.28;;;30.75;;
66727;SDS011;53641;44.274;19.890;2024-01-15T02:26:26;92.28;;;36.83;;
66727;SDS011;53641;44.274;19.890;2024-01-15T02:28:52;89.50;;;36.47;;
66727;SDS011;53641;44.274;19.890;2024-01-15T02:31:18;96.30;;;37.75;;
66727;SDS011;53641;44.274;19.890;2024-01-15T02:33:44;89.70;;;35.30;;
66727;SDS011;53641;44.274;19.890;2024-01-15T02:36:11;70.70;;;26.65;;
66727;SDS011;53641;44.274;19.890;2024-01-15T02:38:37;49.47;;;19.58;;
66727;SDS011;53641;44.274;19.890;2024-01-15T02:41:02;37.78;;;17.98;;
66727;SDS011;53641;44.274;19.890;2024-01-15T02:43:29;45.67;;;20.75;;
66727;SDS011;53641;44.274;19.890;2024-01-15T02:45:54;50.25;;;20.30;;
66727;SDS011;53641;44.274;19.890;2024-01-15T02:48:20;45.65;;;17.92;;
66727;SDS011;53641;44.274;19.890;2024-01-15T02:50:46;49.47;;;22.67;;
66727;SDS011;53641;44.274;19.890;2024-01-15T02:53:12;57.85;;;24.27;;
66727;SDS011;53641;44.274;19.890;2024-01-15T02:55:37;66.30;;;23.98;;
66727;SDS011;53641;44.274;19.890;2024-01-15T02:58:03;57.83;;;21.85;;
66727;SDS011;53641;44.274;19.890;2024-01-15T03:00:29;53.78;;;21.48;;
66727;SDS011;53641;44.274;19.890;2024-01-15T03:02:55;51.30;;;18.70;;
66727;SDS011;53641;44.274;19.890;2024-01-15T03:05:21;41.17;;;18.10;;
66727;SDS011;53641;44.274;19.890;2024-01-15T03:07:47;51.00;;;20.13;;
66727;SDS011;53641;44.274;19.890;2024-01-15T03:10:13;60.15;;;24.38;;
66727;SDS011;53641;44.274;19.890;2024-01-15T03:12:39;54.55;;;23.67;;
66727;SDS011;53641;44.274;19.890;2024-01-15T03:15:23;52.35;;;19.65;;
66727;SDS011;53641;44.274;19.890;2024-01-15T03:18:08;38.83;;;16.65;;
66727;SDS011;53641;44.274;19.890;2024-01-15T03:20:34;41.60;;;18.75;;
66727;SDS011;53641;44.274;19.890;2024-01-15T03:23:00;36.70;;;15.98;;
66727;SDS011;53641;44.274;19.890;2024-01-15T03:25:26;37.08;;;14.82;;
66727;SDS011;53641;44.274;19.890;2024-01-15T03:30:47;46.00;;;17.08;;
66727;SDS011;53641;44.274;19.890;2024-01-15T03:33:13;38.72;;;15.82;;
66727;SDS011;53641;44.274;19.890;2024-01-15T03:35:39;41.88;;;19.23;;
66727;SDS011;53641;44.274;19.890;2024-01-15T03:38:05;62.60;;;25.10;;
66727;SDS011;53641;44.274;19.890;2024-01-15T03:40:31;54.03;;;22.73;;
66727;SDS011;53641;44.274;19.890;2024-01-15T03:43:06;51.75;;;20.45;;
66727;SDS011;53641;44.274;19.890;2024-01-15T03:45:32;54.65;;;24.33;;
66727;SDS011;53641;44.274;19.890;2024-01-15T03:48:14;57.63;;;24.27;;
66727;SDS011;53641;44.274;19.890;2024-01-15T03:50:40;65.93;;;24.73;;
66727;SDS011;53641;44.274;19.890;2024-01-15T03:53:06;68.35;;;26.70;;
66727;SDS011;53641;44.274;19.890;2024-01-15T03:55:32;60.17;;;25.55;;
66727;SDS011;53641;44.274;19.890;2024-01-15T03:57:58;58.88;;;25.55;;
66727;SDS011;53641;44.274;19.890;2024-01-15T04:00:23;71.43;;;28.52;;
66727;SDS011;53641;44.274;19.890;2024-01-15T04:05:27;72.88;;;28.65;;
66727;SDS011;53641;44.274;19.890;2024-01-15T04:07:53;81.28;;;31.02;;
66727;SDS011;53641;44.274;19.890;2024-01-15T04:10:39;73.93;;;27.33;;
66727;SDS011;53641;44.274;19.890;2024-01-15T04:13:14;76.90;;;25.73;;
66727;SDS011;53641;44.274;19.890;2024-01-15T04:15:40;59.58;;;24.17;;
66727;SDS011;53641;44.274;19.890;2024-01-15T04:18:06;53.50;;;23.98;;
66727;SDS011;53641;44.274;19.890;2024-01-15T04:20:32;54.30;;;23.00;;
66727;SDS011;53641;44.274;19.890;2024-01-15T04:22:57;47.22;;;20.80;;
66727;SDS011;53641;44.274;19.890;2024-01-15T04:25:23;48.00;;;20.38;;
66727;SDS011;53641;44.274;19.890;2024-01-15T04:27:49;44.00;;;19.80;;
66727;SDS011;53641;44.274;19.890;2024-01-15T04:30:15;50.65;;;22.05;;
66727;SDS011;53641;44.274;19.890;2024-01-15T04:32:41;50.13;;;20.23;;
66727;SDS011;53641;44.274;19.890;2024-01-15T04:35:07;44.75;;;18.00;;
66727;SDS011;53641;44.274;19.890;2024-01-15T04:37:33;41.00;;;16.30;;
66727;SDS011;53641;44.274;19.890;2024-01-15T04:39:59;39.67;;;16.73;;
66727;SDS011;53641;44.274;19.890;2024-01-15T04:42:24;39.45;;;16.15;;
66727;SDS011;53641;44.274;19.890;2024-01-15T04:44:50;34.92;;;17.30;;
66727;SDS011;53641;44.274;19.890;2024-01-15T04:47:16;37.75;;;16.58;;
66727;SDS011;53641;44.274;19.890;2024-01-15T04:49:42;32.33;;;14.70;;
66727;SDS011;53641;44.274;19.890;2024-01-15T04:52:08;33.97;;;14.38;;
66727;SDS011;53641;44.274;19.890;2024-01-15T04:54:35;35.97;;;15.48;;
66727;SDS011;53641;44.274;19.890;2024-01-15T04:57:21;41.95;;;18.25;;
66727;SDS011;53641;44.274;19.890;2024-01-15T04:59:56;34.28;;;14.45;;
66727;SDS011;53641;44.274;19.890;2024-01-15T05:02:22;41.42;;;14.40;;
66727;SDS011;53641;44.274;19.890;2024-01-15T05:04:48;35.67;;;15.43;;
66727;SDS011;53641;44.274;19.890;2024-01-15T05:07:13;38.92;;;16.00;;
66727;SDS011;53641;44.274;19.890;2024-01-15T05:09:39;35.85;;;17.55;;
66727;SDS011;53641;44.274;19.890;2024-01-15T05:12:05;39.53;;;15.75;;
66727;SDS011;53641;44.274;19.890;2024-01-15T05:17:17;51.63;;;19.77;;
66727;SDS011;53641;44.274;19.890;2024-01-15T05:19:42;39.13;;;17.45;;
66727;SDS011;53641;44.274;19.890;2024-01-15T05:22:28;35.13;;;14.52;;
66727;SDS011;53641;44.274;19.890;2024-01-15T05:25:03;40.25;;;15.00;;
66727;SDS011;53641;44.274;19.890;2024-01-15T05:27:30;36.15;;;15.23;;
66727;SDS011;53641;44.274;19.890;2024-01-15T05:29:58;28.90;;;13.50;;
66727;SDS011;53641;44.274;19.890;2024-01-15T05:32:24;34.03;;;13.38;;
66727;SDS011;53641;44.274;19.890;2024-01-15T05:34:49;31.20;;;13.90;;
66727;SDS011;53641;44.274;19.890;2024-01-15T05:37:43;29.02;;;11.93;;
66727;SDS011;53641;44.274;19.890;2024-01-15T05:40:17;35.28;;;13.10;;
66727;SDS011;53641;44.274;19.890;2024-01-15T05:42:52;35.67;;;15.23;;
66727;SDS011;53641;44.274;19.890;2024-01-15T05:45:18;46.53;;;18.27;;
66727;SDS011;53641;44.274;19.890;2024-01-15T05:47:44;55.33;;;22.02;;
66727;SDS011;53641;44.274;19.890;2024-01-15T05:50:10;68.90;;;27.23;;
66727;SDS011;53641;44.274;19.890;2024-01-15T05:52:48;78.90;;;31.40;;
66727;SDS011;53641;44.274;19.890;2024-01-15T05:55:14;66.10;;;25.50;;
66727;SDS011;53641;44.274;19.890;2024-01-15T05:57:40;64.35;;;27.42;;
66727;SDS011;53641;44.274;19.890;2024-01-15T06:00:06;71.15;;;28.50;;
66727;SDS011;53641;44.274;19.890;2024-01-15T06:02:33;74.03;;;28.55;;
66727;SDS011;53641;44.274;19.890;2024-01-15T06:04:59;71.10;;;29.33;;
66727;SDS011;53641;44.274;19.890;2024-01-15T06:07:36;85.30;;;33.60;;
66727;SDS011;53641;44.274;19.890;2024-01-15T06:10:02;95.35;;;36.38;;
66727;SDS011;53641;44.274;19.890;2024-01-15T06:12:29;82.25;;;36.70;;
66727;SDS011;53641;44.274;19.890;2024-01-15T06:14:56;92.13;;;37.70;;
66727;SDS011;53641;44.274;19.890;2024-01-15T06:17:21;100.28;;;38.67;;
66727;SDS011;53641;44.274;19.890;2024-01-15T06:19:47;100.00;;;39.50;;
66727;SDS011;53641;44.274;19.890;2024-01-15T06:22:13;91.60;;;40.13;;
66727;SDS011;53641;44.274;19.890;2024-01-15T06:24:39;102.55;;;42.15;;
66727;SDS011;53641;44.274;19.890;2024-01-15T06:27:05;112.97;;;46.13;;
66727;SDS011;53641;44.274;19.890;2024-01-15T06:29:31;127.68;;;54.00;;
66727;SDS011;53641;44.274;19.890;2024-01-15T06:31:57;138.90;;;53.88;;
66727;SDS011;53641;44.274;19.890;2024-01-15T06:34:23;130.43;;;52.47;;
66727;SDS011;53641;44.274;19.890;2024-01-15T06:37:08;133.98;;;53.22;;
66727;SDS011;53641;44.274;19.890;2024-01-15T06:39:37;131.68;;;52.97;;
66727;SDS011;53641;44.274;19.890;2024-01-15T06:42:03;132.95;;;54.10;;
66727;SDS011;53641;44.274;19.890;2024-01-15T06:44:38;117.55;;;50.20;;
66727;SDS011;53641;44.274;19.890;2024-01-15T06:47:05;132.52;;;54.88;;
66727;SDS011;53641;44.274;19.890;2024-01-15T06:49:31;128.18;;;53.42;;
66727;SDS011;53641;44.274;19.890;2024-01-15T06:51:56;152.52;;;56.80;;
66727;SDS011;53641;44.274;19.890;2024-01-15T06:54:22;137.27;;;52.53;;
66727;SDS011;53641;44.274;19.890;2024-01-15T06:56:48;130.27;;;53.17;;
66727;SDS011;53641;44.274;19.890;2024-01-15T06:59:34;115.07;;;48.97;;
66727;SDS011;53641;44.274;19.890;2024-01-15T07:02:20;102.40;;;44.35;;
66727;SDS011;53641;44.274;19.890;2024-01-15T07:04:46;112.13;;;47.10;;
66727;SDS011;53641;44.274;19.890;2024-01-15T07:07:12;123.85;;;49.75;;
66727;SDS011;53641;44.274;19.890;2024-01-15T07:09:38;113.88;;;48.33;;
66727;SDS011;53641;44.274;19.890;2024-01-15T07:12:04;122.00;;;48.92;;
66727;SDS011;53641;44.274;19.890;2024-01-15T07:14:30;129.93;;;50.97;;
66727;SDS011;53641;44.274;19.890;2024-01-15T07:16:55;107.22;;;46.28;;
66727;SDS011;53641;44.274;19.890;2024-01-15T07:19:21;107.38;;;44.75;;
66727;SDS011;53641;44.274;19.890;2024-01-15T07:21:47;115.70;;;46.83;;
66727;SDS011;53641;44.274;19.890;2024-01-15T07:24:13;109.28;;;47.97;;
66727;SDS011;53641;44.274;19.890;2024-01-15T07:26:39;117.13;;;48.72;;
66727;SDS011;53641;44.274;19.890;2024-01-15T07:29:05;137.90;;;51.10;;
66727;SDS011;53641;44.274;19.890;2024-01-15T07:31:33;129.63;;;56.05;;
66727;SDS011;53641;44.274;19.890;2024-01-15T07:33:59;143.82;;;60.85;;
66727;SDS011;53641;44.274;19.890;2024-01-15T07:36:25;165.23;;;65.05;;
66727;SDS011;53641;44.274;19.890;2024-01-15T07:39:09;161.20;;;69.72;;
66727;SDS011;53641;44.274;19.890;2024-01-15T07:41:35;177.18;;;72.55;;
66727;SDS011;53641;44.274;19.890;2024-01-15T07:44:01;197.70;;;78.40;;
66727;SDS011;53641;44.274;19.890;2024-01-15T07:46:28;189.88;;;79.15;;
66727;SDS011;53641;44.274;19.890;2024-01-15T07:48:53;179.05;;;78.93;;
66727;SDS011;53641;44.274;19.890;2024-01-15T07:51:23;172.13;;;72.32;;
66727;SDS011;53641;44.274;19.890;2024-01-15T07:53:49;187.93;;;73.32;;
66727;SDS011;53641;44.274;19.890;2024-01-15T07:56:14;156.43;;;69.28;;
66727;SDS011;53641;44.274;19.890;2024-01-15T07:58:41;154.40;;;70.38;;
66727;SDS011;53641;44.274;19.890;2024-01-15T08:01:07;162.82;;;70.20;;
66727;SDS011;53641;44.274;19.890;2024-01-15T08:03:32;165.45;;;70.07;;
66727;SDS011;53641;44.274;19.890;2024-01-15T08:05:59;174.52;;;81.47;;
66727;SDS011;53641;44.274;19.890;2024-01-15T08:08:25;208.63;;;88.43;;
66727;SDS011;53641;44.274;19.890;2024-01-15T08:10:54;211.50;;;93.47;;
66727;SDS011;53641;44.274;19.890;2024-01-15T08:13:20;218.95;;;97.40;;
66727;SDS011;53641;44.274;19.890;2024-01-15T08:15:46;227.70;;;101.03;;
66727;SDS011;53641;44.274;19.890;2024-01-15T08:18:12;238.70;;;104.45;;
66727;SDS011;53641;44.274;19.890;2024-01-15T08:20:38;232.00;;;106.35;;
66727;SDS011;53641;44.274;19.890;2024-01-15T08:23:22;210.45;;;97.03;;
66727;SDS011;53641;44.274;19.890;2024-01-15T08:25:49;224.68;;;102.68;;
66727;SDS011;53641;44.274;19.890;2024-01-15T08:28:16;222.43;;;97.65;;
66727;SDS011;53641;44.274;19.890;2024-01-15T08:30:41;232.48;;;99.63;;
66727;SDS011;53641;44.274;19.890;2024-01-15T08:33:07;188.32;;;89.78;;
66727;SDS011;53641;44.274;19.890;2024-01-15T08:35:33;175.63;;;76.75;;
66727;SDS011;53641;44.274;19.890;2024-01-15T08:38:00;192.60;;;84.25;;
66727;SDS011;53641;44.274;19.890;2024-01-15T08:40:25;190.80;;;86.20;;
66727;SDS011;53641;44.274;19.890;2024-01-15T08:45:57;186.65;;;84.95;;
66727;SDS011;53641;44.274;19.890;2024-01-15T08:48:24;216.85;;;97.80;;
66727;SDS011;53641;44.274;19.890;2024-01-15T08:50:53;231.02;;;101.30;;
66727;SDS011;53641;44.274;19.890;2024-01-15T08:53:19;199.23;;;93.47;;
66727;SDS011;53641;44.274;19.890;2024-01-15T08:55:51;183.98;;;88.88;;
66727;SDS011;53641;44.274;19.890;2024-01-15T08:58:17;179.57;;;79.47;;
66727;SDS011;53641;44.274;19.890;2024-01-15T09:00:43;151.43;;;68.72;;
66727;SDS011;53641;44.274;19.890;2024-01-15T09:03:09;131.35;;;59.80;;
66727;SDS011;53641;44.274;19.890;2024-01-15T09:05:35;106.50;;;48.85;;
66727;SDS011;53641;44.274;19.890;2024-01-15T09:08:20;95.47;;;40.58;;
66727;SDS011;53641;44.274;19.890;2024-01-15T09:10:46;85.10;;;39.13;;
66727;SDS011;53641;44.274;19.890;2024-01-15T09:13:21;122.18;;;49.92;;
66727;SDS011;53641;44.274;19.890;2024-01-15T09:15:47;125.18;;;54.42;;
66727;SDS011;53641;44.274;19.890;2024-01-15T09:18:13;110.43;;;46.28;;
66727;SDS011;53641;44.274;19.890;2024-01-15T09:20:39;110.32;;;47.42;;
66727;SDS011;53641;44.274;19.890;2024-01-15T09:26:00;100.43;;;46.67;;
66727;SDS011;53641;44.274;19.890;2024-01-15T09:28:26;104.55;;;47.05;;
66727;SDS011;53641;44.274;19.890;2024-01-15T09:30:52;109.32;;;50.03;;
66727;SDS011;53641;44.274;19.890;2024-01-15T09:33:17;120.28;;;52.85;;
66727;SDS011;53641;44.274;19.890;2024-01-15T09:35:43;133.02;;;58.20;;
66727;SDS011;53641;44.274;19.890;2024-01-15T09:38:09;146.60;;;60.40;;
66727;SDS011;53641;44.274;19.890;2024-01-15T09:40:35;157.90;;;67.85;;
66727;SDS011;53641;44.274;19.890;2024-01-15T09:43:24;148.32;;;65.22;;
66727;SDS011;53641;44.274;19.890;2024-01-15T09:46:10;138.20;;;61.80;;
66727;SDS011;53641;44.274;19.890;2024-01-15T09:48:36;132.98;;;61.38;;
66727;SDS011;53641;44.274;19.890;2024-01-15T09:51:03;136.88;;;60.70;;
66727;SDS011;53641;44.274;19.890;2024-01-15T09:53:31;151.25;;;63.10;;
66727;SDS011;53641;44.274;19.890;2024-01-15T09:55:57;127.57;;;54.10;;
66727;SDS011;53641;44.274;19.890;2024-01-15T09:58:23;121.30;;;56.53;;
66727;SDS011;53641;44.274;19.890;2024-01-15T10:00:49;120.07;;;54.20;;
66727;SDS011;53641;44.274;19.890;2024-01-15T10:03:16;120.72;;;56.13;;
66727;SDS011;53641;44.274;19.890;2024-01-15T10:05:46;131.65;;;57.60;;
66727;SDS011;53641;44.274;19.890;2024-01-15T10:11:19;118.90;;;52.13;;
66727;SDS011;53641;44.274;19.890;2024-01-15T10:13:45;117.45;;;54.30;;
66727;SDS011;53641;44.274;19.890;2024-01-15T10:16:12;118.63;;;52.25;;
66727;SDS011;53641;44.274;19.890;2024-01-15T10:18:38;117.38;;;54.13;;
66727;SDS011;53641;44.274;19.890;2024-01-15T10:21:07;126.72;;;57.50;;
66727;SDS011;53641;44.274;19.890;2024-01-15T10:23:33;147.63;;;65.30;;
66727;SDS011;53641;44.274;19.890;2024-01-15T10:26:19;171.65;;;76.30;;
66727;SDS011;53641;44.274;19.890;2024-01-15T10:32:15;176.27;;;84.88;;
66727;SDS011;53641;44.274;19.890;2024-01-15T10:34:40;182.20;;;87.65;;
66727;SDS011;53641;44.274;19.890;2024-01-15T10:37:08;190.23;;;83.95;;
66727;SDS011;53641;44.274;19.890;2024-01-15T10:39:36;201.63;;;89.68;;
66727;SDS011;53641;44.274;19.890;2024-01-15T10:42:22;200.07;;;93.15;;
66727;SDS011;53641;44.274;19.890;2024-01-15T10:44:48;231.38;;;108.50;;
66727;SDS011;53641;44.274;19.890;2024-01-15T10:47:14;239.05;;;112.95;;
66727;SDS011;53641;44.274;19.890;2024-01-15T10:49:40;244.80;;;114.38;;
66727;SDS011;53641;44.274;19.890;2024-01-15T10:52:06;276.77;;;125.25;;
66727;SDS011;53641;44.274;19.890;2024-01-15T10:54:32;291.42;;;129.70;;
66727;SDS011;53641;44.274;19.890;2024-01-15T10:57:00;287.60;;;131.07;;
66727;SDS011;53641;44.274;19.890;2024-01-15T10:59:28;302.10;;;142.32;;
66727;SDS011;53641;44.274;19.890;2024-01-15T11:01:54;306.02;;;140.10;;
66727;SDS011;53641;44.274;19.890;2024-01-15T11:04:21;320.77;;;144.45;;
66727;SDS011;53641;44.274;19.890;2024-01-15T11:06:50;317.33;;;146.77;;
66727;SDS011;53641;44.274;19.890;2024-01-15T11:09:18;311.55;;;146.23;;
66727;SDS011;53641;44.274;19.890;2024-01-15T11:11:45;307.38;;;144.13;;
66727;SDS011;53641;44.274;19.890;2024-01-15T11:14:47;309.13;;;140.30;;
66727;SDS011;53641;44.274;19.890;2024-01-15T11:17:10;314.33;;;138.93;;
66727;SDS011;53641;44.274;19.890;2024-01-15T11:22:47;253.43;;;113.75;;
66727;SDS011;53641;44.274;19.890;2024-01-15T11:25:35;233.50;;;108.68;;
66727;SDS011;53641;44.274;19.890;2024-01-15T11:28:04;250.43;;;113.63;;
66727;SDS011;53641;44.274;19.890;2024-01-15T11:30:30;243.23;;;113.47;;
66727;SDS011;53641;44.274;19.890;2024-01-15T11:32:56;260.67;;;120.47;;
66727;SDS011;53641;44.274;19.890;2024-01-15T11:35:22;259.88;;;120.15;;
66727;SDS011;53641;44.274;19.890;2024-01-15T11:37:56;269.38;;;131.40;;
66727;SDS011;53641;44.274;19.890;2024-01-15T11:40:36;243.23;;;112.28;;
66727;SDS011;53641;44.274;19.890;2024-01-15T11:43:07;241.95;;;109.40;;
66727;SDS011;53641;44.274;19.890;2024-01-15T11:45:34;228.73;;;110.40;;
66727;SDS011;53641;44.274;19.890;2024-01-15T11:48:16;260.50;;;125.43;;
66727;SDS011;53641;44.274;19.890;2024-01-15T11:50:43;267.90;;;132.82;;
66727;SDS011;53641;44.274;19.890;2024-01-15T11:53:36;293.33;;;147.40;;
66727;SDS011;53641;44.274;19.890;2024-01-15T11:56:23;284.02;;;138.95;;
66727;SDS011;53641;44.274;19.890;2024-01-15T11:58:49;277.05;;;131.18;;
66727;SDS011;53641;44.274;19.890;2024-01-15T12:01:17;259.45;;;125.50;;
66727;SDS011;53641;44.274;19.890;2024-01-15T12:03:44;272.63;;;127.85;;
66727;SDS011;53641;44.274;19.890;2024-01-15T12:06:15;284.30;;;133.95;;
66727;SDS011;53641;44.274;19.890;2024-01-15T12:08:41;274.10;;;133.13;;
66727;SDS011;53641;44.274;19.890;2024-01-15T12:11:07;305.88;;;142.77;;
66727;SDS011;53641;44.274;19.890;2024-01-15T12:13:38;288.30;;;139.13;;
66727;SDS011;53641;44.274;19.890;2024-01-15T12:19:10;330.88;;;158.45;;
66727;SDS011;53641;44.274;19.890;2024-01-15T12:21:38;338.08;;;167.23;;
66727;SDS011;53641;44.274;19.890;2024-01-15T12:24:06;364.80;;;179.18;;
66727;SDS011;53641;44.274;19.890;2024-01-15T12:26:32;365.33;;;183.25;;
66727;SDS011;53641;44.274;19.890;2024-01-15T12:29:01;378.58;;;183.20;;
66727;SDS011;53641;44.274;19.890;2024-01-15T12:31:29;365.08;;;184.93;;
66727;SDS011;53641;44.274;19.890;2024-01-15T12:33:55;366.77;;;178.25;;
66727;SDS011;53641;44.274;19.890;2024-01-15T12:36:46;395.65;;;196.27;;
66727;SDS011;53641;44.274;19.890;2024-01-15T12:39:34;390.48;;;201.05;;
66727;SDS011;53641;44.274;19.890;2024-01-15T12:42:03;387.67;;;196.98;;
66727;SDS011;53641;44.274;19.890;2024-01-15T12:44:35;391.02;;;202.98;;
66727;SDS011;53641;44.274;19.890;2024-01-15T12:47:03;388.42;;;206.20;;
66727;SDS011;53641;44.274;19.890;2024-01-15T12:49:29;371.95;;;190.52;;
66727;SDS011;53641;44.274;19.890;2024-01-15T12:52:07;375.77;;;188.52;;
66727;SDS011;53641;44.274;19.890;2024-01-15T12:57:39;299.75;;;144.95;;
66727;SDS011;53641;44.274;19.890;2024-01-15T13:00:16;277.90;;;137.45;;
66727;SDS011;53641;44.274;19.890;2024-01-15T13:02:42;298.75;;;151.18;;
66727;SDS011;53641;44.274;19.890;2024-01-15T13:05:08;308.45;;;150.05;;
66727;SDS011;53641;44.274;19.890;2024-01-15T13:07:36;308.20;;;155.55;;
66727;SDS011;53641;44.274;19.890;2024-01-15T13:10:02;302.35;;;153.95;;
66727;SDS011;53641;44.274;19.890;2024-01-15T13:12:28;296.42;;;144.70;;
66727;SDS011;53641;44.274;19.890;2024-01-15T13:14:53;291.23;;;149.00;;
66727;SDS011;53641;44.274;19.890;2024-01-15T13:17:19;295.15;;;151.02;;
66727;SDS011;53641;44.274;19.890;2024-01-15T13:19:46;300.17;;;151.50;;
66727;SDS011;53641;44.274;19.890;2024-01-15T13:22:12;296.10;;;147.40;;
66727;SDS011;53641;44.274;19.890;2024-01-15T13:24:39;369.95;;;180.15;;
66727;SDS011;53641;44.274;19.890;2024-01-15T13:27:05;381.55;;;186.43;;
66727;SDS011;53641;44.274;19.890;2024-01-15T13:29:31;361.70;;;183.70;;
66727;SDS011;53641;44.274;19.890;2024-01-15T13:31:58;344.40;;;179.50;;
66727;SDS011;53641;44.274;19.890;2024-01-15T13:34:25;338.77;;;175.88;;
66727;SDS011;53641;44.274;19.890;2024-01-15T13:37:10;326.95;;;162.60;;
66727;SDS011;53641;44.274;19.890;2024-01-15T13:39:36;361.85;;;177.10;;
66727;SDS011;53641;44.274;19.890;2024-01-15T13:42:02;311.50;;;160.57;;
66727;SDS011;53641;44.274;19.890;2024-01-15T13:44:29;321.55;;;164.82;;
66727;SDS011;53641;44.274;19.890;2024-01-15T13:46:54;330.92;;;167.70;;
66727;SDS011;53641;44.274;19.890;2024-01-15T13:49:20;325.17;;;170.02;;
66727;SDS011;53641;44.274;19.890;2024-01-15T13:51:46;318.10;;;170.40;;
66727;SDS011;53641;44.274;19.890;2024-01-15T13:54:12;348.55;;;182.10;;
66727;SDS011;53641;44.274;19.890;2024-01-15T13:56:38;364.67;;;190.85;;
66727;SDS011;53641;44.274;19.890;2024-01-15T13:59:03;370.08;;;196.65;;
66727;SDS011;53641;44.274;19.890;2024-01-15T14:01:30;373.88;;;196.30;;
66727;SDS011;53641;44.274;19.890;2024-01-15T14:04:00;372.20;;;193.55;;
66727;SDS011;53641;44.274;19.890;2024-01-15T14:06:26;399.58;;;206.43;;
66727;SDS011;53641;44.274;19.890;2024-01-15T14:08:52;396.10;;;201.98;;
66727;SDS011;53641;44.274;19.890;2024-01-15T14:11:18;383.80;;;198.70;;
66727;SDS011;53641;44.274;19.890;2024-01-15T14:13:48;366.52;;;185.82;;
66727;SDS011;53641;44.274;19.890;2024-01-15T14:16:13;378.58;;;194.60;;
66727;SDS011;53641;44.274;19.890;2024-01-15T14:18:39;360.38;;;180.57;;
66727;SDS011;53641;44.274;19.890;2024-01-15T14:21:05;346.85;;;176.02;;
66727;SDS011;53641;44.274;19.890;2024-01-15T14:23:31;339.90;;;168.32;;
66727;SDS011;53641;44.274;19.890;2024-01-15T14:25:57;338.92;;;168.75;;
66727;SDS011;53641;44.274;19.890;2024-01-15T14:28:22;360.90;;;173.65;;
66727;SDS011;53641;44.274;19.890;2024-01-15T14:30:48;348.50;;;174.27;;
66727;SDS011;53641;44.274;19.890;2024-01-15T14:33:14;330.15;;;169.85;;
66727;SDS011;53641;44.274;19.890;2024-01-15T14:35:40;352.67;;;170.43;;
66727;SDS011;53641;44.274;19.890;2024-01-15T14:38:06;321.20;;;165.13;;
66727;SDS011;53641;44.274;19.890;2024-01-15T14:40:32;328.85;;;169.23;;
66727;SDS011;53641;44.274;19.890;2024-01-15T14:42:59;332.08;;;175.52;;